createdAt,value
2023-03-07T00:01:01.520Z,95762.19
2023-03-07T00:02:03.953Z,95758.84
2023-03-07T00:03:06.470Z,95755.06
2023-03-07T00:04:08.465Z,95755.06
2023-03-07T00:05:10.351Z,95758.06
2023-03-07T00:06:12.274Z,95765.44
2023-03-07T00:07:14.839Z,95757.50
2023-03-07T00:08:16.727Z,95753.91
2023-03-07T00:09:18.600Z,95753.53
2023-03-07T00:10:20.474Z,95761.09
2023-03-07T00:11:22.539Z,95753.78
2023-03-07T00:12:24.849Z,95750.00
2023-03-07T00:13:28.892Z,95747.84
2023-03-07T00:14:30.755Z,95757.75
2023-03-07T00:15:32.637Z,95747.25
2023-03-07T00:16:34.750Z,95748.44
2023-03-07T00:17:37.364Z,95752.00
2023-03-07T00:18:39.223Z,95757.75
2023-03-07T00:19:44.196Z,95759.13
2023-03-07T00:20:46.088Z,95753.38
2023-03-07T00:21:48.096Z,95755.94
2023-03-07T00:22:50.064Z,95762.72
2023-03-07T00:23:52.798Z,95755.59
2023-03-07T00:24:54.570Z,95757.16
2023-03-07T00:26:07.198Z,95753.59
2023-03-07T00:27:09.211Z,95755.97
2023-03-07T00:28:11.093Z,95751.81
2023-03-07T00:29:13.055Z,95756.75
2023-03-07T00:30:15.098Z,95755.34
2023-03-07T00:31:17.730Z,95756.72
2023-03-07T00:32:19.643Z,95752.75
2023-03-07T00:33:22.956Z,95750.94
2023-03-07T00:34:24.887Z,95754.31
2023-03-07T00:35:26.827Z,95753.13
2023-03-07T00:36:28.696Z,95757.09
2023-03-07T00:37:31.204Z,95749.34
2023-03-07T00:38:33.527Z,95750.72
2023-03-07T00:39:38.305Z,95743.97
2023-03-07T00:40:40.126Z,95744.41
2023-03-07T00:41:41.984Z,95735.28
2023-03-07T00:42:43.828Z,95743.63
2023-03-07T00:43:47.363Z,95739.84
2023-03-07T00:44:49.306Z,95740.44
2023-03-07T00:45:51.222Z,95738.47
2023-03-07T00:46:53.171Z,95736.69
2023-03-07T00:47:56.425Z,95732.94
2023-03-07T00:48:58.548Z,95738.88
2023-03-07T00:50:00.473Z,95735.50
2023-03-07T00:51:02.531Z,95729.53
2023-03-07T00:52:04.490Z,95731.31
2023-03-07T00:53:06.321Z,95733.31
2023-03-07T00:54:08.220Z,95729.16
2023-03-07T00:55:10.282Z,95736.06
2023-03-07T00:56:12.183Z,95734.84
2023-03-07T00:57:13.989Z,95725.06
2023-03-07T00:58:15.851Z,95722.47
2023-03-07T00:59:17.745Z,95725.66
2023-03-07T01:00:19.748Z,95721.50
2023-03-07T01:01:24.104Z,95721.31
2023-03-07T01:02:25.953Z,95722.09
2023-03-07T01:03:28.300Z,95717.72
2023-03-07T01:04:30.460Z,95717.13
2023-03-07T01:05:32.291Z,95717.31
2023-03-07T01:06:34.794Z,95711.78
2023-03-07T01:07:36.718Z,95709.56
2023-03-07T01:08:38.624Z,95711.34
2023-03-07T01:09:40.433Z,95712.09
2023-03-07T01:10:42.810Z,95711.06
2023-03-07T01:11:44.746Z,95714.44
2023-03-07T01:12:46.692Z,95708.03
2023-03-07T01:13:48.532Z,95705.22
2023-03-07T01:14:51.271Z,95710.59
2023-03-07T01:15:53.114Z,95704.84
2023-03-07T01:16:55.123Z,95708.97
2023-03-07T01:17:57.232Z,95704.56
2023-03-07T01:19:00.652Z,95697.53
2023-03-07T01:20:05.870Z,95701.72
2023-03-07T01:21:28.217Z,95697.50
2023-03-07T01:22:31.584Z,95699.09
2023-03-07T01:23:33.485Z,95697.94
2023-03-07T01:24:35.287Z,95694.72
2023-03-07T01:25:38.641Z,95694.28
2023-03-07T01:26:40.607Z,95698.22
2023-03-07T01:27:42.510Z,95686.28
2023-03-07T01:28:44.392Z,95689.28
2023-03-07T01:29:46.406Z,95693.09
2023-03-07T01:30:56.937Z,95691.31
2023-03-07T01:31:58.858Z,95688.72
2023-03-07T01:33:01.597Z,95691.91
2023-03-07T01:34:04.184Z,95684.78
2023-03-07T01:35:06.207Z,95678.88
2023-03-07T01:36:34.388Z,95681.28
2023-03-07T01:37:36.231Z,95678.72
2023-03-07T01:38:38.123Z,95679.47
2023-03-07T01:39:40.022Z,95680.03
2023-03-07T01:40:41.974Z,95677.88
2023-03-07T01:41:44.581Z,95677.91
2023-03-07T01:42:46.763Z,95670.97
2023-03-07T01:43:48.735Z,95675.75
2023-03-07T01:45:05.061Z,95671.38
2023-03-07T01:46:19.273Z,95675.69
2023-03-07T01:47:21.111Z,95679.25
2023-03-07T01:48:22.983Z,95682.63
2023-03-07T01:49:33.101Z,95683.34
2023-03-07T01:50:35.021Z,95682.63
2023-03-07T01:51:38.253Z,95683.38
2023-03-07T01:52:41.863Z,95683.38
2023-03-07T01:53:44.100Z,95673.00
2023-03-07T01:54:49.400Z,95675.66
2023-03-07T01:55:51.247Z,95673.31
2023-03-07T01:56:53.722Z,95671.88
2023-03-07T01:57:57.061Z,95668.31
2023-03-07T01:58:58.954Z,95672.47
2023-03-07T02:00:06.015Z,95663.03
2023-03-07T02:01:10.106Z,95666.22
2023-03-07T02:02:13.858Z,95670.63
2023-03-07T02:03:15.675Z,95665.91
2023-03-07T02:04:20.252Z,95667.13
2023-03-07T02:05:26.029Z,95660.78
2023-03-07T02:06:29.401Z,95669.72
2023-03-07T02:07:33.929Z,95664.38
2023-03-07T02:08:37.405Z,95664.72
2023-03-07T02:09:39.469Z,95662.75
2023-03-07T02:10:42.122Z,95665.16
2023-03-07T02:11:45.169Z,95661.72
2023-03-07T02:12:47.568Z,95663.50
2023-03-07T02:13:49.909Z,95653.25
2023-03-07T02:14:52.365Z,95651.69
2023-03-07T02:15:54.461Z,95659.25
2023-03-07T02:16:56.360Z,95658.41
2023-03-07T02:18:01.380Z,95654.19
2023-03-07T02:19:03.386Z,95655.59
2023-03-07T02:20:08.060Z,95660.16
2023-03-07T02:21:15.934Z,95653.94
2023-03-07T02:22:19.173Z,95651.94
2023-03-07T02:23:44.535Z,95649.09
2023-03-07T02:25:08.300Z,95652.63
2023-03-07T02:26:14.044Z,95653.78
2023-03-07T02:27:16.076Z,95645.50
2023-03-07T02:28:19.387Z,95654.66
2023-03-07T02:29:21.450Z,95650.25
2023-03-07T02:30:23.340Z,95646.25
2023-03-07T02:31:25.584Z,95652.22
2023-03-07T02:32:27.571Z,95646.63
2023-03-07T02:33:29.969Z,95652.00
2023-03-07T02:34:32.036Z,95648.19
2023-03-07T02:35:33.930Z,95653.00
2023-03-07T02:36:36.494Z,95651.25
2023-03-07T02:37:39.156Z,95648.94
2023-03-07T02:38:43.157Z,95648.00
2023-03-07T02:39:46.098Z,95642.66
2023-03-07T02:40:48.167Z,95645.19
2023-03-07T02:41:51.340Z,95643.38
2023-03-07T02:42:55.238Z,95642.06
2023-03-07T02:43:57.156Z,95645.66
2023-03-07T02:45:00.722Z,95647.06
2023-03-07T02:46:02.650Z,95649.41
2023-03-07T02:47:09.180Z,95640.03
2023-03-07T02:48:11.189Z,95642.25
2023-03-07T02:49:13.076Z,95642.00
2023-03-07T02:50:15.470Z,95647.31
2023-03-07T02:51:17.325Z,95643.72
2023-03-07T02:52:19.731Z,95645.44
2023-03-07T02:53:21.722Z,95647.97
2023-03-07T02:54:23.914Z,95642.44
2023-03-07T02:55:25.840Z,95641.69
2023-03-07T02:56:27.765Z,95643.91
2023-03-07T02:57:29.572Z,95643.19
2023-03-07T02:58:31.535Z,95642.69
2023-03-07T02:59:33.537Z,95637.94
2023-03-07T03:00:35.377Z,95637.94
2023-03-07T03:01:37.350Z,95632.97
2023-03-07T03:02:39.287Z,95636.09
2023-03-07T03:03:41.221Z,95632.91
2023-03-07T03:04:43.199Z,95638.06
2023-03-07T03:05:45.289Z,95638.59
2023-03-07T03:06:47.140Z,95633.38
2023-03-07T03:07:49.071Z,95633.75
2023-03-07T03:08:51.062Z,95636.94
2023-03-07T03:09:52.911Z,95632.41
2023-03-07T03:10:55.255Z,95633.03
2023-03-07T03:11:57.650Z,95630.38
2023-03-07T03:12:59.544Z,95637.44
2023-03-07T03:14:01.410Z,95626.00
2023-03-07T03:15:03.451Z,95625.63
2023-03-07T03:16:06.327Z,95625.91
2023-03-07T03:17:08.279Z,95624.56
2023-03-07T03:18:10.101Z,95628.28
2023-03-07T03:19:12.087Z,95637.16
2023-03-07T03:20:14.281Z,95630.59
2023-03-07T03:21:16.210Z,95623.78
2023-03-07T03:22:18.269Z,95627.34
2023-03-07T03:23:20.165Z,95626.19
2023-03-07T03:24:21.993Z,95623.06
2023-03-07T03:25:25.474Z,95624.72
2023-03-07T03:26:27.443Z,95629.09
2023-03-07T03:27:32.021Z,95627.13
2023-03-07T03:28:35.301Z,95626.41
2023-03-07T03:29:37.440Z,95624.44
2023-03-07T03:30:40.701Z,95620.88
2023-03-07T03:31:42.583Z,95624.06
2023-03-07T03:32:44.805Z,95625.00
2023-03-07T03:33:46.667Z,95624.66
2023-03-07T03:34:48.476Z,95623.44
2023-03-07T03:35:51.027Z,95625.75
2023-03-07T03:36:52.972Z,95622.38
2023-03-07T03:37:54.969Z,95619.38
2023-03-07T03:38:58.594Z,95618.69
2023-03-07T03:40:00.610Z,95619.25
2023-03-07T03:41:06.651Z,95622.22
2023-03-07T03:42:09.075Z,95624.91
2023-03-07T03:43:10.988Z,95616.91
2023-03-07T03:44:12.911Z,95624.00
2023-03-07T03:45:17.486Z,95620.53
2023-03-07T03:46:20.058Z,95617.25
2023-03-07T03:47:21.888Z,95609.41
2023-03-07T03:48:24.246Z,95618.97
2023-03-07T03:49:26.217Z,95618.34
2023-03-07T03:50:28.145Z,95619.09
2023-03-07T03:51:30.283Z,95615.94
2023-03-07T03:52:32.155Z,95623.16
2023-03-07T03:53:35.312Z,95621.53
2023-03-07T03:54:37.139Z,95617.91
2023-03-07T03:55:39.088Z,95621.66
2023-03-07T03:56:40.956Z,95617.91
2023-03-07T03:57:42.854Z,95624.91
2023-03-07T03:58:47.016Z,95618.78
2023-03-07T03:59:49.475Z,95620.19
2023-03-07T04:00:51.325Z,95629.94
2023-03-07T04:01:55.500Z,95630.38
2023-03-07T04:02:57.534Z,95618.94
2023-03-07T04:03:59.656Z,95622.13
2023-03-07T04:05:01.551Z,95621.72
2023-03-07T04:06:07.967Z,95628.06
2023-03-07T04:07:09.869Z,95625.22
2023-03-07T04:08:11.757Z,95624.44
2023-03-07T04:09:13.632Z,95621.06
2023-03-07T04:10:15.625Z,95620.81
2023-03-07T04:11:17.564Z,95628.34
2023-03-07T04:12:19.539Z,95621.25
2023-03-07T04:13:21.433Z,95623.81
2023-03-07T04:14:23.484Z,95626.56
2023-03-07T04:15:25.520Z,95630.66
2023-03-07T04:16:27.521Z,95631.03
2023-03-07T04:17:29.354Z,95627.84
2023-03-07T04:18:31.172Z,95628.47
2023-03-07T04:19:33.541Z,95629.09
2023-03-07T04:20:35.456Z,95633.84
2023-03-07T04:21:37.417Z,95628.91
2023-03-07T04:22:39.309Z,95630.06
2023-03-07T04:23:41.192Z,95626.63
2023-03-07T04:24:43.092Z,95632.13
2023-03-07T04:25:49.026Z,95630.38
2023-03-07T04:26:51.005Z,95631.78
2023-03-07T04:27:52.865Z,95637.38
2023-03-07T04:28:54.825Z,95636.81
2023-03-07T04:29:57.278Z,95629.88
2023-03-07T04:30:59.305Z,95636.19
2023-03-07T04:32:01.399Z,95630.16
2023-03-07T04:33:03.221Z,95632.75
2023-03-07T04:34:05.166Z,95631.78
2023-03-07T04:35:07.155Z,95633.00
2023-03-07T04:36:09.642Z,95633.44
2023-03-07T04:37:11.466Z,95631.47
2023-03-07T04:38:13.794Z,95633.06
2023-03-07T04:39:15.772Z,95632.00
2023-03-07T04:40:17.661Z,95630.16
2023-03-07T04:41:23.835Z,95628.94
2023-03-07T04:42:25.734Z,95631.34
2023-03-07T04:43:27.648Z,95630.91
2023-03-07T04:44:29.585Z,95636.88
2023-03-07T04:45:32.762Z,95630.09
2023-03-07T04:46:34.721Z,95627.72
2023-03-07T04:47:36.572Z,95627.91
2023-03-07T04:48:38.389Z,95629.31
2023-03-07T04:49:40.205Z,95628.94
2023-03-07T04:50:42.055Z,95630.38
2023-03-07T04:51:44.224Z,95636.03
2023-03-07T04:52:46.312Z,95631.28
2023-03-07T04:53:48.141Z,95627.72
2023-03-07T04:54:50.069Z,95631.09
2023-03-07T04:55:52.213Z,95633.69
2023-03-07T04:56:54.152Z,95629.94
2023-03-07T04:57:57.983Z,95632.13
2023-03-07T04:58:59.885Z,95626.63
2023-03-07T05:00:01.794Z,95631.78
2023-03-07T05:01:05.109Z,95635.31
2023-03-07T05:02:07.984Z,95632.75
2023-03-07T05:03:10.490Z,95636.94
2023-03-07T05:04:12.362Z,95639.84
2023-03-07T05:05:14.287Z,95639.78
2023-03-07T05:06:16.626Z,95635.03
2023-03-07T05:07:18.584Z,95632.63
2023-03-07T05:08:21.352Z,95634.56
2023-03-07T05:09:23.166Z,95629.59
2023-03-07T05:10:25.052Z,95641.22
2023-03-07T05:11:26.954Z,95635.81
2023-03-07T05:12:28.948Z,95640.63
2023-03-07T05:13:31.434Z,95641.84
2023-03-07T05:14:33.276Z,95632.72
2023-03-07T05:15:35.822Z,95630.78
2023-03-07T05:16:37.769Z,95633.75
2023-03-07T05:17:39.675Z,95630.41
2023-03-07T05:18:41.571Z,95630.22
2023-03-07T05:19:43.443Z,95629.66
2023-03-07T05:20:45.417Z,95638.00
2023-03-07T05:21:49.369Z,95633.69
2023-03-07T05:22:51.373Z,95636.94
2023-03-07T05:23:53.197Z,95620.88
2023-03-07T05:24:55.082Z,95621.09
2023-03-07T05:25:57.040Z,95620.28
2023-03-07T05:26:58.907Z,95626.03
2023-03-07T05:28:00.812Z,95627.66
2023-03-07T05:29:02.690Z,95631.63
2023-03-07T05:30:06.182Z,95626.91
2023-03-07T05:31:08.214Z,95626.13
2023-03-07T05:32:11.363Z,95624.16
2023-03-07T05:33:13.408Z,95631.38
2023-03-07T05:34:16.349Z,95629.78
2023-03-07T05:35:18.308Z,95625.19
2023-03-07T05:36:20.246Z,95627.13
2023-03-07T05:37:22.102Z,95627.56
2023-03-07T05:38:24.006Z,95625.06
2023-03-07T05:39:27.833Z,95626.31
2023-03-07T05:40:29.911Z,95623.19
2023-03-07T05:41:32.184Z,95623.44
2023-03-07T05:42:34.130Z,95620.50
2023-03-07T05:43:36.682Z,95629.25
2023-03-07T05:44:38.609Z,95625.34
2023-03-07T05:45:40.573Z,95630.06
2023-03-07T05:46:42.444Z,95628.28
2023-03-07T05:47:44.983Z,95624.38
2023-03-07T05:48:47.429Z,95621.59
2023-03-07T05:49:49.805Z,95617.44
2023-03-07T05:50:51.764Z,95625.16
2023-03-07T05:51:53.727Z,95620.81
2023-03-07T05:52:55.589Z,95626.75
2023-03-07T05:53:57.479Z,95620.63
2023-03-07T05:54:59.348Z,95619.28
2023-03-07T05:56:01.296Z,95624.88
2023-03-07T05:57:03.193Z,95629.22
2023-03-07T05:58:06.164Z,95624.06
2023-03-07T05:59:08.246Z,95621.91
2023-03-07T06:00:11.932Z,95622.34
2023-03-07T06:01:13.829Z,95623.56
2023-03-07T06:02:15.694Z,95621.00
2023-03-07T06:03:17.584Z,95626.31
2023-03-07T06:04:19.407Z,95626.53
2023-03-07T06:05:21.215Z,95628.72
2023-03-07T06:06:23.071Z,95626.31
2023-03-07T06:07:25.067Z,95620.94
2023-03-07T06:08:26.958Z,95624.91
2023-03-07T06:09:28.873Z,95628.72
2023-03-07T06:10:30.861Z,95620.03
2023-03-07T06:11:33.048Z,95619.22
2023-03-07T06:12:34.994Z,95623.41
2023-03-07T06:13:36.985Z,95622.59
2023-03-07T06:14:38.978Z,95621.78
2023-03-07T06:15:40.978Z,95624.19
2023-03-07T06:16:42.886Z,95619.03
2023-03-07T06:17:44.901Z,95626.59
2023-03-07T06:18:46.762Z,95631.16
2023-03-07T06:19:48.657Z,95631.00
2023-03-07T06:20:56.969Z,95626.63
2023-03-07T06:21:58.856Z,95629.22
2023-03-07T06:23:01.422Z,95632.97
2023-03-07T06:24:03.495Z,95636.94
2023-03-07T06:25:06.160Z,95634.78
2023-03-07T06:26:08.744Z,95632.81
2023-03-07T06:27:10.670Z,95636.81
2023-03-07T06:28:12.628Z,95635.41
2023-03-07T06:29:14.605Z,95633.63
2023-03-07T06:30:16.619Z,95636.19
2023-03-07T06:31:19.774Z,95635.84
2023-03-07T06:32:21.793Z,95635.22
2023-03-07T06:33:23.854Z,95634.19
2023-03-07T06:34:25.914Z,95633.75
2023-03-07T06:35:27.794Z,95638.41
2023-03-07T06:36:29.792Z,95635.47
2023-03-07T06:37:32.159Z,95637.69
2023-03-07T06:38:34.061Z,95636.50
2023-03-07T06:39:36.200Z,95641.13
2023-03-07T06:40:38.510Z,95638.34
2023-03-07T06:41:40.345Z,95632.22
2023-03-07T06:42:42.212Z,95643.94
2023-03-07T06:43:44.091Z,95644.19
2023-03-07T06:44:46.038Z,95639.63
2023-03-07T06:45:47.903Z,95639.25
2023-03-07T06:46:49.831Z,95639.25
2023-03-07T06:47:51.890Z,95636.28
2023-03-07T06:48:55.469Z,95643.75
2023-03-07T06:49:57.489Z,95642.53
2023-03-07T06:50:59.388Z,95641.28
2023-03-07T06:52:01.552Z,95641.47
2023-03-07T06:53:03.538Z,95640.25
2023-03-07T06:54:05.410Z,95638.72
2023-03-07T06:55:07.703Z,95635.75
2023-03-07T06:56:09.655Z,95639.75
2023-03-07T06:57:11.508Z,95639.16
2023-03-07T06:58:13.379Z,95641.13
2023-03-07T06:59:15.362Z,95641.72
2023-03-07T07:00:17.574Z,95636.56
2023-03-07T07:01:20.641Z,95636.56
2023-03-07T07:02:22.751Z,95641.34
2023-03-07T07:03:25.192Z,95643.56
2023-03-07T07:04:27.092Z,95644.19
2023-03-07T07:05:29.045Z,95633.88
2023-03-07T07:06:30.979Z,95642.13
2023-03-07T07:07:32.911Z,95636.63
2023-03-07T07:08:34.796Z,95637.25
2023-03-07T07:09:36.740Z,95636.81
2023-03-07T07:10:38.757Z,95633.41
2023-03-07T07:11:40.756Z,95643.69
2023-03-07T07:12:42.669Z,95642.09
2023-03-07T07:13:46.192Z,95640.13
2023-03-07T07:14:48.149Z,95645.16
2023-03-07T07:15:50.047Z,95638.47
2023-03-07T07:16:52.044Z,95643.47
2023-03-07T07:17:54.020Z,95639.97
2023-03-07T07:18:55.999Z,95644.56
2023-03-07T07:19:57.958Z,95644.75
2023-03-07T07:21:00.056Z,95643.72
2023-03-07T07:22:01.934Z,95644.53
2023-03-07T07:23:03.841Z,95646.97
2023-03-07T07:24:05.872Z,95644.25
2023-03-07T07:25:07.914Z,95645.09
2023-03-07T07:26:10.125Z,95640.16
2023-03-07T07:27:12.657Z,95642.00
2023-03-07T07:28:14.555Z,95643.97
2023-03-07T07:29:16.646Z,95642.41
2023-03-07T07:30:18.597Z,95650.47
2023-03-07T07:31:20.654Z,95644.84
2023-03-07T07:32:22.814Z,95643.47
2023-03-07T07:33:24.896Z,95644.09
2023-03-07T07:34:27.208Z,95648.50
2023-03-07T07:35:29.126Z,95645.56
2023-03-07T07:36:31.089Z,95643.00
2023-03-07T07:37:32.938Z,95631.91
2023-03-07T07:38:35.587Z,95636.06
2023-03-07T07:39:37.588Z,95641.00
2023-03-07T07:40:39.617Z,95629.09
2023-03-07T07:41:41.555Z,95642.59
2023-03-07T07:42:43.829Z,95633.50
2023-03-07T07:43:48.527Z,95636.94
2023-03-07T07:44:50.377Z,95636.78
2023-03-07T07:45:52.305Z,95643.94
2023-03-07T07:46:54.388Z,95639.19
2023-03-07T07:47:56.471Z,95645.16
2023-03-07T07:48:58.366Z,95637.84
2023-03-07T07:50:00.304Z,95630.53
2023-03-07T07:51:03.136Z,95633.34
2023-03-07T07:52:05.347Z,95627.56
2023-03-07T07:53:07.241Z,95632.31
2023-03-07T07:54:10.009Z,95624.53
2023-03-07T07:55:14.508Z,95630.69
2023-03-07T07:56:16.545Z,95629.75
2023-03-07T07:57:18.488Z,95618.25
2023-03-07T07:58:20.352Z,95618.66
2023-03-07T07:59:22.273Z,95627.44
2023-03-07T08:00:24.298Z,95621.09
2023-03-07T08:01:26.222Z,95627.88
2023-03-07T08:02:29.131Z,95622.94
2023-03-07T08:03:32.756Z,95622.75
2023-03-07T08:04:35.935Z,95626.13
2023-03-07T08:05:38.029Z,95623.00
2023-03-07T08:06:40.021Z,95621.56
2023-03-07T08:07:41.878Z,95617.81
2023-03-07T08:08:43.773Z,95621.41
2023-03-07T08:09:45.595Z,95620.41
2023-03-07T08:10:47.918Z,95620.22
2023-03-07T08:11:49.968Z,95617.25
2023-03-07T08:12:52.098Z,95617.66
2023-03-07T08:13:54.019Z,95610.09
2023-03-07T08:14:55.917Z,95608.91
2023-03-07T08:15:57.849Z,95607.75
2023-03-07T08:16:59.732Z,95612.13
2023-03-07T08:18:01.574Z,95612.09
2023-03-07T08:19:03.477Z,95609.34
2023-03-07T08:20:10.099Z,95605.56
2023-03-07T08:21:11.943Z,95611.69
2023-03-07T08:22:13.884Z,95607.72
2023-03-07T08:23:15.698Z,95614.09
2023-03-07T08:24:17.608Z,95599.97
2023-03-07T08:25:22.381Z,95602.75
2023-03-07T08:26:24.900Z,95593.41
2023-03-07T08:27:27.877Z,95597.59
2023-03-07T08:28:29.773Z,95597.41
2023-03-07T08:29:33.299Z,95594.81
2023-03-07T08:30:36.050Z,95597.38
2023-03-07T08:31:37.939Z,95596.78
2023-03-07T08:32:39.809Z,95590.81
2023-03-07T08:33:42.276Z,95588.22
2023-03-07T08:34:44.113Z,95582.47
2023-03-07T08:35:46.118Z,95589.00
2023-03-07T08:36:47.996Z,95591.38
2023-03-07T08:37:54.321Z,95589.78
2023-03-07T08:38:56.186Z,95588.38
2023-03-07T08:39:58.060Z,95586.78
2023-03-07T08:41:04.681Z,95591.38
2023-03-07T08:42:07.210Z,95590.16
2023-03-07T08:43:09.157Z,95587.97
2023-03-07T08:44:11.139Z,95588.16
2023-03-07T08:45:13.256Z,95592.34
2023-03-07T08:46:15.748Z,95594.13
2023-03-07T08:47:17.812Z,95592.09
2023-03-07T08:48:21.076Z,95588.13
2023-03-07T08:49:22.973Z,95592.34
2023-03-07T08:50:32.987Z,95585.75
2023-03-07T08:51:35.278Z,95593.13
2023-03-07T08:52:37.198Z,95583.34
2023-03-07T08:53:39.475Z,95587.28
2023-03-07T08:54:41.468Z,95583.28
2023-03-07T08:55:46.254Z,95577.28
2023-03-07T08:56:48.216Z,95582.44
2023-03-07T08:57:50.153Z,95581.00
2023-03-07T08:58:55.256Z,95582.56
2023-03-07T08:59:57.058Z,95577.75
2023-03-07T09:00:59.230Z,95575.97
2023-03-07T09:02:01.201Z,95574.16
2023-03-07T09:03:03.382Z,95573.47
2023-03-07T09:04:05.526Z,95575.84
2023-03-07T09:05:07.627Z,95570.81
2023-03-07T09:06:15.623Z,95568.16
2023-03-07T09:07:17.532Z,95567.31
2023-03-07T09:08:19.488Z,95570.31
2023-03-07T09:09:21.486Z,95562.13
2023-03-07T09:10:23.437Z,95567.44
2023-03-07T09:11:26.891Z,95561.84
2023-03-07T09:12:28.766Z,95558.22
2023-03-07T09:13:31.251Z,95561.09
2023-03-07T09:14:33.941Z,95556.06
2023-03-07T09:15:38.454Z,95554.63
2023-03-07T09:16:40.418Z,95554.84
2023-03-07T09:17:42.337Z,95560.88
2023-03-07T09:18:44.183Z,95551.09
2023-03-07T09:19:46.180Z,95555.41
2023-03-07T09:20:48.047Z,95553.84
2023-03-07T09:21:50.670Z,95544.63
2023-03-07T09:22:54.496Z,95542.63
2023-03-07T09:23:56.524Z,95542.34
2023-03-07T09:24:58.446Z,95544.44
2023-03-07T09:26:00.790Z,95537.81
2023-03-07T09:27:02.714Z,95539.75
2023-03-07T09:28:04.508Z,95538.97
2023-03-07T09:29:06.351Z,95539.94
2023-03-07T09:30:08.897Z,95538.66
2023-03-07T09:31:11.912Z,95532.75
2023-03-07T09:32:14.036Z,95533.75
2023-03-07T09:33:16.050Z,95536.66
2023-03-07T09:34:17.984Z,95532.75
2023-03-07T09:35:19.897Z,95534.06
2023-03-07T09:36:21.707Z,95532.97
2023-03-07T09:37:23.594Z,95539.69
2023-03-07T09:38:25.413Z,95524.81
2023-03-07T09:39:27.467Z,95524.38
2023-03-07T09:40:29.589Z,95526.41
2023-03-07T09:41:34.167Z,95532.47
2023-03-07T09:42:59.213Z,95530.75
2023-03-07T09:44:18.378Z,95527.50
2023-03-07T09:45:38.515Z,95519.19
2023-03-07T09:46:40.643Z,95517.53
2023-03-07T09:47:42.525Z,95520.25
2023-03-07T09:48:48.174Z,95513.19
2023-03-07T09:49:50.950Z,95514.44
2023-03-07T09:50:55.519Z,95521.59
2023-03-07T09:51:59.443Z,95522.25
2023-03-07T09:53:03.474Z,95517.19
2023-03-07T09:54:22.057Z,95511.53
2023-03-07T09:55:25.406Z,95507.38
2023-03-07T09:56:33.592Z,95504.00
2023-03-07T09:57:54.087Z,95507.63
2023-03-07T09:59:17.106Z,95508.19
2023-03-07T10:00:23.663Z,95502.22
2023-03-07T10:01:26.971Z,95500.84
2023-03-07T10:02:33.134Z,95498.34
2023-03-07T10:03:35.019Z,95504.59
2023-03-07T10:04:47.281Z,95497.09
2023-03-07T10:05:50.581Z,95488.16
2023-03-07T10:06:57.971Z,95497.22
2023-03-07T10:08:01.961Z,95494.81
2023-03-07T10:09:05.780Z,95495.22
2023-03-07T10:10:13.149Z,95486.72
2023-03-07T10:11:33.510Z,95491.38
2023-03-07T10:12:53.858Z,95492.50
2023-03-07T10:14:01.666Z,95485.34
2023-03-07T10:15:16.167Z,95488.69
2023-03-07T10:16:24.943Z,95482.13
2023-03-07T10:17:45.329Z,95483.22
2023-03-07T10:19:00.364Z,95486.25
2023-03-07T10:20:13.460Z,95487.19
2023-03-07T10:21:18.071Z,95480.59
2023-03-07T10:22:38.268Z,95483.31
2023-03-07T10:23:41.508Z,95475.34
2023-03-07T10:25:02.054Z,95479.13
2023-03-07T10:26:03.959Z,95476.38
2023-03-07T10:27:07.302Z,95470.25
2023-03-07T10:28:11.902Z,95474.09
2023-03-07T10:29:22.923Z,95479.06
2023-03-07T10:30:24.941Z,95468.00
2023-03-07T10:31:30.815Z,95475.34
2023-03-07T10:32:35.510Z,95479.72
2023-03-07T10:33:40.778Z,95472.59
2023-03-07T10:34:42.595Z,95465.63
2023-03-07T10:35:48.700Z,95467.19
2023-03-07T10:37:06.496Z,95472.91
2023-03-07T10:38:19.460Z,95463.25
2023-03-07T10:39:37.808Z,95447.38
2023-03-07T10:40:49.287Z,95453.19
2023-03-07T10:41:51.411Z,95442.34
2023-03-07T10:42:54.521Z,95448.59
2023-03-07T10:43:57.201Z,95451.28
2023-03-07T10:44:59.280Z,95446.22
2023-03-07T10:46:23.709Z,95443.34
2023-03-07T10:47:28.679Z,95439.13
2023-03-07T10:48:31.906Z,95442.28
2023-03-07T10:49:37.832Z,95436.88
2023-03-07T10:50:51.633Z,95434.03
2023-03-07T10:52:02.247Z,95429.25
2023-03-07T10:53:09.757Z,95422.19
2023-03-07T10:54:14.758Z,95422.63
2023-03-07T10:55:32.007Z,95418.91
2023-03-07T10:56:34.073Z,95417.88
2023-03-07T10:57:36.022Z,95415.28
2023-03-07T10:58:38.106Z,95416.06
2023-03-07T10:59:43.918Z,95413.69
2023-03-07T11:00:47.051Z,95412.22
2023-03-07T11:01:55.688Z,95414.34
2023-03-07T11:02:57.637Z,95411.91
2023-03-07T11:04:20.408Z,95408.25
2023-03-07T11:05:31.561Z,95406.34
2023-03-07T11:06:51.396Z,95401.59
2023-03-07T11:07:53.283Z,95396.78
2023-03-07T11:08:56.560Z,95390.84
2023-03-07T11:09:59.526Z,95392.41
2023-03-07T11:11:02.495Z,95383.38
2023-03-07T11:12:10.553Z,95377.03
2023-03-07T11:13:16.733Z,95368.59
2023-03-07T11:14:19.077Z,95371.88
2023-03-07T11:15:24.492Z,95360.03
2023-03-07T11:16:26.550Z,95363.34
2023-03-07T11:17:39.604Z,95363.69
2023-03-07T11:18:42.713Z,95361.84
2023-03-07T11:19:46.232Z,95350.41
2023-03-07T11:20:49.336Z,95351.50
2023-03-07T11:21:55.215Z,95343.63
2023-03-07T11:23:16.237Z,95344.09
2023-03-07T11:24:25.237Z,95339.09
2023-03-07T11:25:27.246Z,95339.16
2023-03-07T11:26:31.222Z,95338.09
2023-03-07T11:27:34.899Z,95335.63
2023-03-07T11:28:36.757Z,95337.59
2023-03-07T11:29:38.797Z,95334.03
2023-03-07T11:30:47.389Z,95329.56
2023-03-07T11:31:49.294Z,95327.25
2023-03-07T11:32:51.162Z,95328.66
2023-03-07T11:33:59.435Z,95320.16
2023-03-07T11:35:07.101Z,95326.16
2023-03-07T11:36:14.461Z,95319.66
2023-03-07T11:37:19.312Z,95322.13
2023-03-07T11:38:27.481Z,95318.78
2023-03-07T11:39:34.672Z,95321.06
2023-03-07T11:40:43.843Z,95317.13
2023-03-07T11:41:52.864Z,95305.41
2023-03-07T11:42:59.249Z,95309.06
2023-03-07T11:44:01.199Z,95301.94
2023-03-07T11:45:21.323Z,95311.28
2023-03-07T11:46:34.319Z,95298.38
2023-03-07T11:47:44.108Z,95294.97
2023-03-07T11:49:04.770Z,95291.63
2023-03-07T11:50:21.473Z,95289.69
2023-03-07T11:51:33.471Z,95287.56
2023-03-07T11:52:44.003Z,95289.75
2023-03-07T11:53:51.878Z,95287.78
2023-03-07T11:55:12.277Z,95280.84
2023-03-07T11:56:29.744Z,95281.75
2023-03-07T11:57:52.410Z,95280.16
2023-03-07T11:59:06.231Z,95275.44
2023-03-07T12:00:46.711Z,95273.81
2023-03-07T12:01:55.776Z,95272.06
2023-03-07T12:02:57.739Z,95258.88
2023-03-07T12:04:01.605Z,95259.47
2023-03-07T12:05:15.574Z,95261.00
2023-03-07T12:06:35.947Z,95249.66
2023-03-07T12:07:40.688Z,95247.63
2023-03-07T12:08:45.426Z,95250.88
2023-03-07T12:10:02.171Z,95239.34
2023-03-07T12:11:04.023Z,95237.75
2023-03-07T12:12:12.573Z,95235.03
2023-03-07T12:13:35.054Z,95228.19
2023-03-07T12:14:39.524Z,95233.13
2023-03-07T12:16:00.041Z,95230.97
2023-03-07T12:17:20.355Z,95235.13
2023-03-07T12:18:22.194Z,95226.06
2023-03-07T12:19:33.007Z,95222.06
2023-03-07T12:20:53.660Z,95228.53
2023-03-07T12:22:14.427Z,95217.91
2023-03-07T12:23:39.454Z,95212.53
2023-03-07T12:24:55.616Z,95211.00
2023-03-07T12:25:59.654Z,95210.25
2023-03-07T12:27:10.649Z,95206.84
2023-03-07T12:28:22.730Z,95210.56
2023-03-07T12:29:27.963Z,95200.63
2023-03-07T12:30:35.670Z,95205.31
2023-03-07T12:31:39.802Z,95201.66
2023-03-07T12:32:41.889Z,95203.22